Latest Weather Observations for Coffs Harbour Airport

IDN60801

Issued at 3:53 pm EDT Tuesday 29 November 2022 (issued every 10 minutes, with the page automatically refreshed every 10 minutes)

About weather observations | Map of weather stations | Latest weather observations for NSW | Other Formats
Station Details ID: 059151 Name: COFFS HARBOUR AIRPORT Lat: -30.32 Lon: 153.12 Height: 3.5 m
Data from the previous 72 hours. | See also: Recent months at Coffs Harbour Airport
Date/Time
EDT
Temp
°C
App
Temp
°C
Dew
Point
°C
Rel
Hum
%
Delta-T
°C
Wind Press
QNH
hPa
Press
MSL
hPa
Rain since
9am
mm
Dir  Spd
km/h
Gust
km/h
Spd
kts
Gust
kts
29/03:30pm 23.9 22.9 17.9 69 3.8 SSE 20 30 11 16 1010.0 1010.0 0.0
29/03:00pm 25.4 24.5 19.1 68 4.0 SSE 22 30 12 16 1010.0 1010.0 0.0
29/02:30pm 25.1 23.8 19.0 69 3.9 SSE 24 33 13 18 1009.8 1009.8 0.0
29/02:00pm 25.8 24.5 19.0 66 4.4 SSE 24 35 13 19 1009.9 1009.9 0.0
29/01:30pm 25.5 24.7 19.2 68 4.0 SSE 22 30 12 16 1010.0 1010.0 0.0
29/01:00pm 25.2 23.7 18.6 67 4.2 SSE 24 32 13 17 1010.2 1010.2 0.0
29/12:30pm 26.0 24.8 19.2 66 4.4 SSE 24 33 13 18 1010.3 1010.3 0.0
29/12:00pm 25.4 23.4 19.1 68 4.0 SSE 28 33 15 18 1010.3 1010.3 0.0
29/11:30am 25.2 24.0 20.0 73 3.4 S 26 33 14 18 1010.4 1010.4 0.0
29/11:00am 25.6 24.4 17.5 61 5.1 S 20 28 11 15 1010.2 1010.2 0.0
29/10:30am 25.7 24.1 17.4 60 5.2 S 22 30 12 16 1010.1 1010.1 0.0
29/10:00am 24.4 23.4 17.9 67 4.1 S 20 28 11 15 1010.1 1010.1 0.0
29/09:30am 23.2 22.9 18.3 74 3.1 SW 17 20 9 11 1010.0 1010.0 0.0
29/09:00am 22.6 22.7 18.4 77 2.6 SSW 15 22 8 12 1010.0 1010.0 5.0
29/08:30am 22.1 22.5 18.1 78 2.5 SW 13 17 7 9 1009.8 1009.8 5.0
29/08:00am 21.6 22.2 18.6 83 1.9 SW 13 17 7 9 1009.5 1009.5 5.0
29/07:30am 21.3 22.2 18.5 84 1.8 WSW 11 15 6 8 1009.3 1009.3 5.0
29/07:00am 20.8 22.2 18.6 87 1.4 WSW 9 13 5 7 1008.9 1008.9 5.0
29/06:30am 20.5 22.2 18.6 89 1.2 WSW 7 11 4 6 1008.4 1008.4 5.0
29/06:00am 20.2 21.8 18.3 89 1.2 WSW 7 9 4 5 1008.0 1008.0 5.0
29/05:30am 20.3 21.7 18.6 90 1.1 WSW 9 13 5 7 1007.7 1007.7 5.0
29/05:00am 20.1 21.2 18.8 92 0.8 SW 11 15 6 8 1007.2 1007.2 5.0
29/04:30am 19.5 20.9 17.8 90 1.0 WSW 7 11 4 6 1006.8 1006.8 5.0
29/04:00am 19.8 21.3 18.1 90 1.1 WSW 7 9 4 5 1006.9 1006.9 5.0
29/03:30am 20.0 20.8 18.1 89 1.2 WSW 11 15 6 8 1006.6 1006.6 4.8
29/03:03am 20.4 20.9 18.3 88 1.3 SW 13 17 7 9 1007.0 1007.0 4.8
29/03:00am 20.5 20.6 18.4 88 1.3 SW 15 17 8 9 1006.9 1006.9 4.8
29/02:30am 20.7 21.7 18.6 88 1.3 WSW 11 19 6 10 1006.9 1006.9 4.8
29/02:29am 20.7 21.7 18.6 88 1.3 WSW 11 19 6 10 1006.9 1006.9 4.8
29/02:00am 20.8 21.1 18.7 88 1.3 WSW 15 17 8 9 1006.8 1006.8 4.8
29/01:44am 20.9 21.2 18.8 88 1.3 SW 15 19 8 10 1007.1 1007.1 4.8
29/01:30am 21.0 21.4 18.9 88 1.3 SW 15 19 8 10 1007.2 1007.2 4.8
29/01:25am 21.0 21.4 18.9 88 1.3 SW 15 17 8 9 1007.2 1007.2 4.8
29/01:00am 21.1 21.9 19.0 88 1.3 SW 13 17 7 9 1007.4 1007.4 4.8
29/12:30am 21.1 22.3 19.0 88 1.3 SW 11 15 6 8 1007.7 1007.7 4.8
29/12:00am 21.2 20.9 19.1 88 1.3 SSW 19 24 10 13 1007.9 1007.9 4.8
 
Date/Time
EDT
Temp
°C
App
Temp
°C
Dew
Point
°C
Rel
Hum
%
Delta-T
°C
Wind Press
QNH
hPa
Press
MSL
hPa
Rain since
9am
mm
Dir  Spd
km/h
Gust
km/h
Spd
kts
Gust
kts
28/11:30pm 21.2 21.2 18.9 87 1.4 SSW 17 22 9 12 1008.0 1008.0 4.8
28/11:02pm 21.4 21.5 19.1 87 1.5 SSW 17 20 9 11 1007.9 1007.9 4.8
28/11:00pm 21.4 21.5 19.1 87 1.5 SSW 17 20 9 11 1007.9 1007.9 4.8
28/10:30pm 21.5 22.1 19.4 88 1.3 SSW 15 20 8 11 1007.7 1007.7 4.8
28/10:19pm 21.4 21.9 19.3 88 1.3 SW 15 19 8 10 1007.7 1007.7 4.8
28/10:00pm 21.2 22.0 19.1 88 1.3 SW 13 17 7 9 1007.7 1007.7 4.8
28/09:30pm 21.3 22.1 19.0 87 1.5 SW 13 15 7 8 1007.4 1007.4 4.8
28/09:00pm 21.7 22.6 19.3 86 1.5 S 13 17 7 9 1007.3 1007.3 4.8
28/08:48pm 21.7 21.8 19.1 85 1.6 S 17 22 9 12 1007.0 1007.0 4.8
28/08:30pm 21.9 22.1 19.3 85 1.7 S 17 20 9 11 1006.8 1006.8 4.8
28/08:00pm 21.9 22.1 19.3 85 1.7 SSW 17 24 9 13 1006.3 1006.3 4.8
28/07:30pm 22.1 22.7 19.5 85 1.7 SSW 15 20 8 11 1006.4 1006.4 4.8
28/07:00pm 22.1 21.7 19.3 84 1.8 S 20 28 11 15 1005.6 1005.6 4.8
28/06:37pm 22.3 22.0 19.5 84 1.8 S 20 28 11 15 1005.5 1005.5 4.8
28/06:30pm 22.4 21.4 19.6 84 1.8 S 24 30 13 16 1005.3 1005.3 4.8
28/06:00pm 22.5 20.9 19.3 82 2.0 SSW 26 33 14 18 1005.1 1005.1 4.8
28/05:30pm 22.9 21.5 19.7 82 2.1 SSW 26 35 14 19 1004.9 1004.9 4.8
28/05:00pm 22.9 22.6 19.5 81 2.2 SSW 20 26 11 14 1004.8 1004.8 4.8
28/04:30pm 24.2 21.6 15.9 59 5.0 SSW 24 30 13 16 1004.1 1004.1 4.8
28/04:00pm 23.9 23.2 17.4 67 4.0 S 17 28 9 15 1004.4 1004.4 4.8
28/03:30pm 23.7 21.9 18.8 74 3.1 S 26 35 14 19 1004.2 1004.2 4.8
28/03:00pm 25.8 27.0 20.6 73 3.4 NW 15 22 8 12 1003.4 1003.4 4.8
28/02:44pm 24.1 25.8 18.5 71 3.5 N 7 13 4 7 1003.0 1003.0 4.8
28/02:32pm 22.8 23.2 18.1 75 2.9 N 13 22 7 12 1002.9 1002.9 4.8
28/02:30pm 23.5 24.7 20.0 81 2.3 N 13 22 7 12 1002.9 1002.9 4.8
28/02:29pm 23.2 24.3 19.6 80 2.3 N 13 22 7 12 1002.9 1002.9 4.8
28/02:26pm 22.5 22.9 18.9 80 2.3 NNE 15 19 8 10 1003.0 1003.0 4.8
28/02:10pm 21.6 21.0 18.4 82 2.0 ENE 19 30 10 16 1004.6 1004.6 3.4
28/02:09pm 21.6 20.9 18.2 81 2.1 ENE 19 30 10 16 1004.7 1004.7 2.6
28/02:00pm 22.1 20.4 18.1 78 2.5 NNE 24 35 13 19 1002.7 1002.7 1.4
28/01:30pm 24.7 24.5 19.3 72 3.5 NE 19 28 10 15 1003.2 1003.2 0.0
28/01:18pm 25.6 24.2 18.8 66 4.3 NE 24 33 13 18 1002.9 1002.9 0.0
28/01:00pm 28.0 27.1 19.8 61 5.4 NE 24 32 13 17 1003.3 1003.3 0.0
28/12:30pm 27.8 27.1 19.6 61 5.3 NE 22 30 12 16 1003.7 1003.7 0.0
28/12:00pm 27.4 25.7 18.1 57 5.9 NE 24 30 13 16 1004.1 1004.1 0.0
28/11:30am 27.8 26.9 19.1 59 5.6 NE 22 28 12 15 1004.3 1004.3 0.0
28/11:00am 26.0 25.2 18.4 63 4.8 NNE 20 26 11 14 1004.3 1004.3 0.0
28/10:30am 26.9 27.9 18.7 60 5.2 NNE 11 15 6 8 1004.8 1004.8 0.0
28/10:00am 25.8 26.2 19.0 66 4.4 NNE 15 20 8 11 1005.0 1005.0 0.0
28/09:30am 24.8 24.8 19.0 70 3.7 NNE 17 19 9 10 1005.4 1005.4 0.0
28/09:00am 24.0 25.0 19.5 76 2.9 NNE 13 20 7 11 1005.4 1005.4 0.6
28/08:30am 23.3 25.5 19.2 78 2.6 NNW 6 11 3 6 1005.3 1005.3 0.6
28/08:00am 23.0 26.4 19.4 80 2.3 CALM 0 2 0 1 1005.5 1005.5 0.6
28/07:30am 22.4 24.3 19.8 85 1.7 W 9 9 5 5 1005.5 1005.5 0.6
28/07:00am 21.6 23.8 19.3 87 1.5 SSW 6 9 3 5 1005.3 1005.3 0.6
28/06:30am 21.7 20.9 18.5 82 2.0 S 20 28 11 15 1005.3 1005.3 0.4
28/06:00am 23.1 24.7 16.9 68 3.8 NNE 4 9 2 5 1004.6 1004.6 0.0
28/05:30am 25.8 25.8 15.2 52 6.4 W 9 19 5 10 1003.7 1003.7 0.0
28/05:00am 26.3 24.5 15.4 51 6.6 WNW 19 32 10 17 1002.9 1002.9 0.0
28/04:30am 24.8 23.5 15.7 57 5.5 WNW 17 26 9 14 1002.5 1002.5 0.0
28/04:00am 24.8 24.6 15.7 57 5.5 NNE 11 17 6 9 1002.3 1002.3 0.0
28/03:30am 23.9 24.3 16.2 62 4.7 NNE 9 15 5 8 1002.5 1002.5 0.0
28/03:00am 23.8 22.5 15.8 61 4.9 NNW 17 26 9 14 1002.3 1002.3 0.0
28/02:30am 24.0 22.1 15.8 60 5.0 NNW 20 32 11 17 1002.3 1002.3 0.0
28/02:00am 24.1 23.2 15.9 60 5.0 NW 15 32 8 17 1002.5 1002.5 0.0
28/01:30am 24.3 23.8 15.8 59 5.1 NNW 13 26 7 14 1002.9 1002.9 0.0
28/01:00am 24.3 22.7 16.0 60 5.1 N 19 30 10 16 1003.3 1003.3 0.0
28/12:30am 24.0 21.6 16.3 62 4.7 NNW 24 32 13 17 1003.4 1003.4 0.0
28/12:00am 24.1 22.6 16.4 62 4.7 NNW 19 30 10 16 1003.9 1003.9 0.0
 
Date/Time
EDT
Temp
°C
App
Temp
°C
Dew
Point
°C
Rel
Hum
%
Delta-T
°C
Wind Press
QNH
hPa
Press
MSL
hPa
Rain since
9am
mm
Dir  Spd
km/h
Gust
km/h
Spd
kts
Gust
kts
27/11:30pm 24.3 23.2 16.3 61 4.9 N 17 26 9 14 1004.3 1004.3 0.0
27/11:00pm 23.7 23.3 16.2 63 4.6 N 13 19 7 10 1004.6 1004.6 0.0
27/10:30pm 24.0 22.3 16.3 62 4.7 NNE 20 32 11 17 1004.7 1004.7 0.0
27/10:00pm 24.8 23.2 16.0 58 5.4 NNE 19 26 10 14 1004.6 1004.6 0.0
27/09:30pm 25.3 23.7 16.4 57 5.5 N 20 30 11 16 1004.6 1004.6 0.0
27/09:00pm 24.5 23.9 17.5 65 4.4 N 17 22 9 12 1004.7 1004.7 0.0
27/08:30pm 25.2 24.8 17.1 60 5.0 N 15 19 8 10 1004.4 1004.4 0.0
27/08:00pm 24.7 24.2 17.9 66 4.3 NNE 17 22 9 12 1004.0 1004.0 0.0
27/07:30pm 26.1 25.3 18.0 61 5.1 NNE 19 24 10 13 1003.9 1003.9 0.0
27/07:00pm 25.2 24.7 19.1 69 3.9 NNE 20 28 11 15 1003.6 1003.6 0.0
27/06:30pm 27.9 27.2 17.4 52 6.6 NNE 17 24 9 13 1003.7 1003.7 0.0
27/06:00pm 28.8 26.6 17.0 49 7.4 N 24 32 13 17 1003.8 1003.8 0.0
27/05:30pm 29.0 26.5 17.2 49 7.4 N 26 39 14 21 1003.7 1003.7 0.0
27/05:00pm 28.8 25.5 17.0 49 7.4 N 30 41 16 22 1003.6 1003.6 0.0
27/04:30pm 29.2 27.3 16.7 46 7.8 NNE 22 37 12 20 1004.2 1004.2 0.0
27/04:00pm 29.3 28.4 17.8 50 7.3 N 19 30 10 16 1004.4 1004.4 0.0
27/03:30pm 28.7 27.3 16.9 48 7.4 N 20 32 11 17 1004.9 1004.9 0.0
27/03:00pm 27.9 26.8 17.4 52 6.6 N 19 30 10 16 1005.3 1005.3 0.0
27/02:30pm 26.6 25.1 16.8 55 6.1 N 20 30 11 16 1005.8 1005.8 0.0
27/02:00pm 26.2 24.2 17.3 58 5.6 N 24 35 13 19 1006.1 1006.1 0.0
27/01:30pm 26.3 24.1 16.8 56 5.9 N 24 32 13 17 1006.4 1006.4 0.0
27/01:00pm 26.7 25.0 17.2 56 5.9 NNE 22 30 12 16 1006.5 1006.5 0.0
27/12:30pm 26.8 25.2 16.1 52 6.6 N 19 30 10 16 1006.6 1006.6 0.0
27/12:00pm 26.9 26.2 17.4 56 6.0 N 17 32 9 17 1007.4 1007.4 0.0
27/11:30am 25.2 24.0 17.4 62 4.9 NNW 20 28 11 15 1007.8 1007.8 0.0
27/11:00am 24.7 22.9 16.9 62 4.8 N 22 33 12 18 1008.1 1008.1 0.0
27/10:30am 24.1 21.4 16.6 63 4.6 NNW 26 37 14 20 1008.4 1008.4 0.0
27/10:00am 24.5 21.6 17.0 63 4.6 NNW 28 39 15 21 1008.8 1008.8 0.0
27/09:30am 23.5 21.6 16.8 66 4.1 NNW 22 32 12 17 1008.5 1008.5 0.0
27/09:00am 22.1 19.8 16.6 71 3.4 NNW 24 35 13 19 1008.9 1008.9 0.0
27/08:30am 21.5 18.9 16.0 71 3.3 N 24 35 13 19 1009.2 1009.2 0.0
27/08:00am 20.8 19.5 15.8 73 3.0 NNW 17 30 9 16 1009.4 1009.4 0.0
27/07:30am 20.4 19.1 15.8 75 2.7 NNW 17 24 9 13 1009.3 1009.3 0.0
27/07:00am 20.2 19.1 15.2 73 3.0 NNW 15 20 8 11 1009.3 1009.3 0.0
27/06:30am 20.0 18.6 15.6 76 2.6 N 17 20 9 11 1009.3 1009.3 0.0
27/06:00am 19.1 18.4 15.4 79 2.2 N 13 19 7 10 1009.4 1009.4 0.0
27/05:30am 18.7 17.1 15.0 79 2.2 N 17 20 9 11 1009.2 1009.2 0.0
27/05:00am 18.6 17.3 14.9 79 2.2 N 15 22 8 12 1009.1 1009.1 0.0
27/04:30am 19.1 17.4 14.8 76 2.5 N 17 22 9 12 1009.4 1009.4 0.0
27/04:00am 19.3 18.1 15.0 76 2.5 N 15 19 8 10 1009.5 1009.5 0.0
27/03:30am 19.2 18.3 14.9 76 2.5 N 13 19 7 10 1009.8 1009.8 0.0
27/03:00am 19.3 18.5 15.0 76 2.5 NNW 13 19 7 10 1010.3 1010.3 0.0
27/02:30am 19.1 18.3 15.0 77 2.4 NNW 13 17 7 9 1010.4 1010.4 0.0
27/02:00am 18.7 18.7 15.2 80 2.1 W 9 13 5 7 1010.8 1010.8 0.0
27/01:30am 18.5 18.1 15.2 81 1.9 W 11 13 6 7 1011.4 1011.4 0.0
27/01:00am 18.7 18.8 15.4 81 1.9 W 9 11 5 6 1011.7 1011.7 0.0
27/12:30am 18.5 20.3 15.6 83 1.7 CALM 0 0 0 0 1012.3 1012.3 0.0
27/12:00am 18.5 20.2 15.2 81 1.9 CALM 0 0 0 0 1012.6 1012.6 0.0
 
Date/Time
EDT
Temp
°C
App
Temp
°C
Dew
Point
°C
Rel
Hum
%
Delta-T
°C
Wind Press
QNH
hPa
Press
MSL
hPa
Rain since
9am
mm
Dir  Spd
km/h
Gust
km/h
Spd
kts
Gust
kts
26/11:30pm 18.6 19.1 15.5 82 1.8 W 7 9 4 5 1013.0 1013.0 0.0
26/11:00pm 18.6 19.1 15.5 82 1.8 W 7 9 4 5 1013.2 1013.2 0.0
26/10:30pm 18.6 19.0 15.3 81 1.9 W 7 9 4 5 1013.2 1013.2 0.0
26/10:00pm 18.7 19.1 15.2 80 2.0 W 7 9 4 5 1013.3 1013.3 0.0
26/09:30pm 18.8 18.4 15.3 80 2.1 WSW 11 13 6 7 1013.3 1013.3 0.0
26/09:00pm 19.1 19.3 14.8 76 2.5 SSW 7 9 4 5 1012.9 1012.9 0.0
26/08:30pm 19.5 19.7 14.7 74 2.8 S 7 9 4 5 1012.9 1012.9 0.0
26/08:00pm 19.7 20.4 14.5 72 3.0 SSE 4 13 2 7 1012.8 1012.8 0.0
26/07:30pm 19.9 19.3 14.5 71 3.1 SE 11 15 6 8 1012.5 1012.5 0.0
26/07:00pm 20.2 18.7 14.3 69 3.4 SE 15 19 8 10 1012.1 1012.1 0.0
26/06:30pm 20.2 18.9 14.8 71 3.2 SSE 15 20 8 11 1011.9 1011.9 0.0
26/06:00pm 20.4 18.5 15.2 72 3.1 SE 19 28 10 15 1011.7 1011.7 0.0
26/05:30pm 20.5 18.6 15.1 71 3.2 SE 19 26 10 14 1011.9 1011.9 0.0
26/05:00pm 20.6 18.5 15.2 71 3.2 SE 20 26 11 14 1012.0 1012.0 0.0
26/04:30pm 21.0 19.2 15.5 71 3.3 SE 19 28 10 15 1012.1 1012.1 0.0
26/04:00pm 20.9 18.3 15.0 69 3.5 SE 22 30 12 16 1012.3 1012.3 0.0

Other formats

Comma delimited format used in spreadsheet applications
http://www.bom.gov.au/fwo/IDN60801/IDN60801.95729.axf

JavaScript Object Notation format (JSON) in row-major order
http://www.bom.gov.au/fwo/IDN60801/IDN60801.95729.json

Data quality

Most of these data are generated automatically and are frequently updated. Quality checks on data are not normally performed. It is possible for incorrect values to appear. Refer to information at About Latest Weather Observations and please check the disclaimer before using these data.